Time;durP1;ratioP1;P1;durP2;ratioP2;P2;SDS_P1;SDS_P2;PMS_P1;PMS_P2;Temp;Humidity;BMP_temperature;BMP_pressure;BME280_temperature;BME280_humidity;BME280_pressure;Samples;Min_cycle;Max_cycle;Signal;HPM_P1;HPM_P2
2023/10/24 00:02:25;;;;;;;6.70;2.30;;;;;11.20;96321.00;;;;5065107;28;20207;-85
2023/10/24 00:05:16;;;;;;;7.87;2.70;;;;;11.00;96314.00;;;;5065832;28;20579;-84
2023/10/24 00:08:05;;;;;;;7.97;2.73;;;;;11.40;96308.00;;;;5066370;28;20212;-84
2023/10/24 00:11:01;;;;;;;9.93;3.27;;;;;11.60;96312.00;;;;5067866;28;20731;-82
2023/10/24 00:13:50;;;;;;;7.17;2.50;;;;;11.70;96316.00;;;;5069778;28;20203;-85
2023/10/24 00:16:39;;;;;;;10.70;3.60;;;;;11.60;96312.00;;;;5068370;28;20479;-85
2023/10/24 00:19:28;;;;;;;2.80;1.03;;;;;11.40;96325.00;;;;5065308;28;20755;-86
2023/10/24 00:22:18;;;;;;;2.37;0.90;;;;;11.50;96318.00;;;;5063512;28;20226;-85
2023/10/24 00:25:08;;;;;;;8.53;2.93;;;;;11.10;96333.00;;;;5060894;28;20701;-85
2023/10/24 00:27:57;;;;;;;7.80;2.70;;;;;11.40;96321.00;;;;5069289;28;20204;-83
2023/10/24 00:30:46;;;;;;;6.70;2.40;;;;;11.80;96314.00;;;;5068320;28;20223;-82
2023/10/24 00:33:35;;;;;;;10.03;3.47;;;;;11.90;96307.00;;;;5067546;28;20208;-82
2023/10/24 00:36:24;;;;;;;8.23;2.90;;;;;11.50;96316.00;;;;5064138;28;20204;-83
2023/10/24 00:39:15;;;;;;;6.90;2.40;;;;;11.20;96298.00;;;;5062477;28;20222;-82
2023/10/24 00:42:05;;;;;;;6.43;2.17;;;;;11.60;96304.00;;;;5068510;28;20219;-82
2023/10/24 00:44:54;;;;;;;8.23;2.80;;;;;11.60;96289.00;;;;5068631;28;20200;-83
2023/10/24 00:47:43;;;;;;;7.03;2.43;;;;;11.60;96283.00;;;;5065550;28;20204;-82
2023/10/24 00:50:32;;;;;;;8.63;2.97;;;;;11.50;96273.00;;;;5067697;28;20218;-85
2023/10/24 00:53:21;;;;;;;6.00;2.10;;;;;10.90;96263.00;;;;5065008;28;20200;-83
2023/10/24 00:56:12;;;;;;;9.50;3.23;;;;;11.20;96254.00;;;;5065611;28;20204;-82
2023/10/24 00:59:02;;;;;;;12.93;4.23;;;;;11.00;96262.00;;;;5068780;28;20216;-83
2023/10/24 01:01:51;;;;;;;7.03;2.50;;;;;10.20;96279.00;;;;5068847;28;20220;-83
2023/10/24 01:04:40;;;;;;;11.93;3.87;;;;;10.20;96284.00;;;;5066995;28;20212;-82
2023/10/24 01:07:30;;;;;;;6.97;2.43;;;;;11.10;96285.00;;;;5067317;28;21048;-85
2023/10/24 01:10:19;;;;;;;7.03;2.50;;;;;11.10;96285.00;;;;5060894;28;20219;-81
2023/10/24 01:13:10;;;;;;;6.47;2.30;;;;;11.10;96261.00;;;;5059292;28;20207;-83
2023/10/24 01:15:59;;;;;;;9.83;3.33;;;;;11.30;96246.00;;;;5067827;28;20206;-83
2023/10/24 01:18:48;;;;;;;11.10;3.77;;;;;11.20;96241.00;;;;5065695;28;20200;-84
2023/10/24 01:21:37;;;;;;;11.53;3.80;;;;;11.30;96239.00;;;;5066417;28;20707;-86
2023/10/24 01:24:28;;;;;;;7.43;2.47;;;;;11.00;96236.00;;;;5068330;28;20211;-81
2023/10/24 01:27:18;;;;;;;3.83;1.47;;;;;10.50;96246.00;;;;5066693;28;20211;-82
2023/10/24 01:30:08;;;;;;;8.13;2.70;;;;;10.70;96241.00;;;;5073053;28;20223;-83
2023/10/24 01:32:58;;;;;;;6.50;2.30;;;;;11.20;96238.00;;;;5070422;28;20204;-85
2023/10/24 01:35:47;;;;;;;12.50;4.33;;;;;10.90;96251.00;;;;5072120;28;20204;-84
2023/10/24 01:38:36;;;;;;;12.00;3.97;;;;;10.60;96253.00;;;;5070284;28;20204;-84
2023/10/24 01:41:26;;;;;;;7.10;2.50;;;;;10.80;96250.00;;;;5064697;28;20223;-84
2023/10/24 01:44:15;;;;;;;5.90;2.10;;;;;11.30;96250.00;;;;5064606;28;20298;-82
2023/10/24 01:47:04;;;;;;;6.47;2.27;;;;;11.30;96249.00;;;;5071405;28;20203;-84
2023/10/24 01:49:53;;;;;;;7.43;2.60;;;;;11.40;96254.00;;;;5068731;28;20223;-86
2023/10/24 01:52:42;;;;;;;10.70;3.63;;;;;11.50;96255.00;;;;5068263;28;20233;-86
2023/10/24 01:55:31;;;;;;;6.33;2.30;;;;;11.30;96261.00;;;;5069159;28;20218;-82
2023/10/24 01:58:22;;;;;;;10.80;3.53;;;;;11.40;96254.00;;;;5066387;28;20212;-81
2023/10/24 02:01:11;;;;;;;6.80;2.30;;;;;11.10;96248.00;;;;5065028;28;20227;-84
2023/10/24 02:04:00;;;;;;;6.17;2.20;;;;;11.20;96242.00;;;;5064181;28;20200;-82
2023/10/24 02:06:49;;;;;;;10.03;3.50;;;;;11.50;96229.00;;;;5068345;28;20200;-83
2023/10/24 02:09:38;;;;;;;6.70;2.37;;;;;11.50;96233.00;;;;5068835;28;20192;-83
2023/10/24 02:12:27;;;;;;;6.07;2.13;;;;;10.90;96220.00;;;;5066879;28;20291;-83
2023/10/24 02:15:17;;;;;;;4.20;1.53;;;;;9.90;96249.00;;;;5067243;28;20699;-86
2023/10/24 02:18:07;;;;;;;13.87;4.47;;;;;10.70;96265.00;;;;5063999;28;20672;-82
2023/10/24 02:20:56;;;;;;;9.63;3.27;;;;;11.00;96274.00;;;;5070441;28;20227;-82
2023/10/24 02:23:45;;;;;;;10.87;3.73;;;;;10.90;96258.00;;;;5072306;28;20223;-85
2023/10/24 02:26:34;;;;;;;9.07;3.10;;;;;10.90;96264.00;;;;5070876;28;20664;-85
2023/10/24 02:29:23;;;;;;;6.63;2.20;;;;;11.00;96258.00;;;;5067203;28;20698;-85
2023/10/24 02:32:13;;;;;;;6.17;2.20;;;;;10.70;96250.00;;;;5066272;28;20223;-86
2023/10/24 02:35:02;;;;;;;8.23;2.80;;;;;10.30;96247.00;;;;5069464;28;20334;-86
2023/10/24 02:37:51;;;;;;;6.40;2.30;;;;;10.30;96243.00;;;;5071867;28;20208;-85
2023/10/24 02:40:40;;;;;;;9.73;3.30;;;;;10.40;96239.00;;;;5078388;28;20243;-84
2023/10/24 02:43:29;;;;;;;6.10;2.13;;;;;10.00;96237.00;;;;5075932;28;20656;-81
2023/10/24 02:46:18;;;;;;;9.87;3.33;;;;;10.40;96243.00;;;;5072217;28;20208;-87
2023/10/24 02:49:08;;;;;;;5.43;2.00;;;;;10.90;96248.00;;;;5064917;28;20252;-86
2023/10/24 02:51:57;;;;;;;5.30;1.90;;;;;10.80;96248.00;;;;5069551;28;20227;-86
2023/10/24 02:54:46;;;;;;;7.17;2.53;;;;;10.40;96235.00;;;;5071283;28;20204;-87
2023/10/24 02:57:35;;;;;;;10.03;3.40;;;;;10.30;96249.00;;;;5070603;28;20219;-87
2023/10/24 03:00:24;;;;;;;6.43;2.30;;;;;10.20;96250.00;;;;5065136;28;20227;-85
2023/10/24 03:03:14;;;;;;;6.80;2.40;;;;;10.80;96267.00;;;;5064801;28;20580;-85
2023/10/24 03:06:14;;;;;;;7.20;2.40;;;;;11.10;96263.00;;;;5070239;28;20200;-86
2023/10/24 03:09:04;;;;;;;6.47;2.27;;;;;10.80;96254.00;;;;5068314;28;20203;-87
2023/10/24 03:11:53;;;;;;;7.87;2.67;;;;;10.60;96256.00;;;;5069498;28;20223;-86
2023/10/24 03:14:42;;;;;;;10.93;3.77;;;;;10.00;96251.00;;;;5069698;28;20200;-87
2023/10/24 03:17:31;;;;;;;4.77;1.80;;;;;9.80;96267.00;;;;5069775;28;20280;-86
2023/10/24 03:20:20;;;;;;;5.20;1.90;;;;;10.30;96261.00;;;;5063891;28;20236;-86
2023/10/24 03:23:11;;;;;;;6.80;2.40;;;;;10.70;96255.00;;;;5062941;28;20211;-87
2023/10/24 03:26:01;;;;;;;10.00;3.47;;;;;10.30;96259.00;;;;5068612;28;20203;-86
2023/10/24 03:28:50;;;;;;;8.03;2.70;;;;;9.90;96256.00;;;;5067485;28;20204;-85
2023/10/24 03:31:39;;;;;;;7.00;2.37;;;;;10.40;96252.00;;;;5069848;28;20235;-86
2023/10/24 03:34:28;;;;;;;6.80;2.37;;;;;10.00;96252.00;;;;5064837;28;20196;-86
2023/10/24 03:37:20;;;;;;;8.10;2.73;;;;;10.40;96253.00;;;;5063650;28;20203;-86
2023/10/24 03:40:11;;;;;;;8.83;2.93;;;;;10.70;96256.00;;;;5063643;28;20702;-85
2023/10/24 03:43:00;;;;;;;6.23;2.20;;;;;10.50;96247.00;;;;5070816;28;20199;-86
2023/10/24 03:45:49;;;;;;;13.60;4.60;;;;;10.60;96252.00;;;;5071688;28;20196;-85
2023/10/24 03:48:38;;;;;;;10.37;3.63;;;;;10.60;96258.00;;;;5071795;28;20210;-85
2023/10/24 03:51:27;;;;;;;6.73;2.30;;;;;10.80;96258.00;;;;5063649;28;20216;-86
2023/10/24 03:54:16;;;;;;;7.90;2.73;;;;;11.20;96263.00;;;;5064765;28;20204;-85
2023/10/24 03:57:07;;;;;;;6.17;2.20;;;;;11.10;96243.00;;;;5068061;28;20203;-86
2023/10/24 03:59:56;;;;;;;5.53;1.93;;;;;11.30;96246.00;;;;5065945;28;20215;-86
2023/10/24 04:02:46;;;;;;;9.50;3.20;;;;;11.00;96234.00;;;;5068158;28;20208;-85
2023/10/24 04:05:35;;;;;;;8.37;2.73;;;;;10.80;96235.00;;;;5068001;28;20196;-84
2023/10/24 04:08:24;;;;;;;6.00;2.03;;;;;10.60;96236.00;;;;5064935;28;20204;-86
2023/10/24 04:11:16;;;;;;;4.50;1.63;;;;;11.00;96228.00;;;;5063270;28;20216;-84
2023/10/24 04:14:06;;;;;;;6.80;2.27;;;;;10.70;96213.00;;;;5066810;28;20219;-82
2023/10/24 04:16:56;;;;;;;6.43;2.20;;;;;11.10;96197.00;;;;5067200;28;20223;-85
2023/10/24 04:19:46;;;;;;;9.33;3.17;;;;;10.80;96208.00;;;;5070105;28;20229;-83
2023/10/24 04:22:35;;;;;;;8.40;2.83;;;;;10.30;96207.00;;;;5061965;28;20226;-84
2023/10/24 04:25:24;;;;;;;8.07;2.80;;;;;9.50;96215.00;;;;5063661;28;20211;-85
2023/10/24 04:28:14;;;;;;;12.20;3.93;;;;;10.60;96218.00;;;;5064614;28;20206;-84
2023/10/24 04:31:04;;;;;;;7.17;2.53;;;;;10.40;96207.00;;;;5066513;28;20208;-86
2023/10/24 04:33:53;;;;;;;4.87;1.83;;;;;10.40;96202.00;;;;5067794;28;20219;-86
2023/10/24 04:36:58;;;;;;;7.20;2.43;;;;;10.00;96202.00;;;;5022936;28;20618;-84
2023/10/24 04:39:47;;;;;;;10.70;3.80;;;;;9.90;96208.00;;;;5060094;28;20204;-87
2023/10/24 04:42:36;;;;;;;7.27;2.57;;;;;10.10;96206.00;;;;5067923;28;20236;-85
2023/10/24 04:45:29;;;;;;;6.33;2.30;;;;;10.00;96217.00;;;;5061586;28;20204;-87
2023/10/24 04:48:20;;;;;;;14.53;4.77;;;;;9.90;96204.00;;;;5066528;28;20203;-83
2023/10/24 04:51:12;;;;;;;8.13;2.80;;;;;9.90;96215.00;;;;5059575;28;20743;-84
2023/10/24 04:54:01;;;;;;;5.77;2.03;;;;;10.70;96207.00;;;;5068930;28;20207;-86
2023/10/24 04:56:51;;;;;;;8.80;3.10;;;;;10.40;96203.00;;;;5069937;28;20204;-86
2023/10/24 04:59:40;;;;;;;10.37;3.47;;;;;10.30;96186.00;;;;5071432;28;20562;-84
2023/10/24 05:02:29;;;;;;;3.70;1.43;;;;;10.20;96195.00;;;;5070635;28;20226;-87
2023/10/24 05:05:19;;;;;;;3.53;1.30;;;;;10.40;96184.00;;;;5072762;28;20196;-85
2023/10/24 05:08:10;;;;;;;16.23;5.20;;;;;10.40;96197.00;;;;5063747;28;20200;-82
2023/10/24 05:10:59;;;;;;;8.03;2.73;;;;;10.40;96217.00;;;;5069018;28;20727;-83
2023/10/24 05:13:49;;;;;;;12.67;4.27;;;;;11.10;96229.00;;;;5068911;28;20223;-82
2023/10/24 05:16:38;;;;;;;9.87;3.37;;;;;11.40;96231.00;;;;5068936;28;20191;-86
2023/10/24 05:19:27;;;;;;;5.30;1.83;;;;;11.50;96229.00;;;;5068269;28;20286;-86
2023/10/24 05:22:17;;;;;;;5.07;1.77;;;;;11.20;96245.00;;;;5069227;28;20237;-83
2023/10/24 05:25:07;;;;;;;9.17;3.03;;;;;11.10;96234.00;;;;5063951;28;20219;-84
2023/10/24 05:27:56;;;;;;;4.47;1.57;;;;;11.20;96243.00;;;;5068720;28;20204;-83
2023/10/24 05:30:45;;;;;;;14.40;4.87;;;;;11.20;96228.00;;;;5067758;28;20227;-83
2023/10/24 05:33:35;;;;;;;7.97;2.60;;;;;11.20;96211.00;;;;5068769;28;20196;-84
2023/10/24 05:36:24;;;;;;;12.20;4.07;;;;;11.30;96206.00;;;;5066529;28;20211;-86
2023/10/24 05:39:15;;;;;;;8.93;2.90;;;;;11.30;96207.00;;;;5066769;28;20200;-86
2023/10/24 05:42:05;;;;;;;10.60;3.50;;;;;11.10;96194.00;;;;5065502;28;20281;-83
2023/10/24 05:44:54;;;;;;;10.87;3.63;;;;;11.30;96194.00;;;;5062470;28;20209;-84
2023/10/24 05:47:43;;;;;;;11.17;3.70;;;;;10.70;96178.00;;;;5066094;28;20200;-85
2023/10/24 05:50:33;;;;;;;8.83;2.97;;;;;10.40;96179.00;;;;5065556;28;20223;-86
2023/10/24 05:53:22;;;;;;;7.53;2.60;;;;;10.70;96175.00;;;;5064214;28;20209;-85
2023/10/24 05:56:13;;;;;;;5.40;1.90;;;;;11.20;96186.00;;;;5063330;28;20204;-81
2023/10/24 05:59:02;;;;;;;7.47;2.63;;;;;11.50;96180.00;;;;5068686;28;20207;-85
2023/10/24 06:01:51;;;;;;;11.60;3.90;;;;;10.90;96176.00;;;;5064368;28;20220;-85
2023/10/24 06:04:40;;;;;;;13.43;4.43;;;;;11.20;96175.00;;;;5058025;28;20213;-85
2023/10/24 06:07:30;;;;;;;8.43;2.77;;;;;11.00;96168.00;;;;5068595;28;20208;-83
2023/10/24 06:10:19;;;;;;;30.80;9.90;;;;;11.00;96177.00;;;;5059652;28;20228;-86
2023/10/24 06:13:09;;;;;;;7.67;2.50;;;;;10.90;96184.00;;;;5069105;28;20192;-84
2023/10/24 06:16:08;;;;;;;11.50;3.83;;;;;11.60;96197.00;;;;5063175;28;20204;-86
2023/10/24 06:18:57;;;;;;;5.13;1.77;;;;;12.00;96190.00;;;;5068052;28;20207;-86
2023/10/24 06:21:46;;;;;;;9.70;3.33;;;;;11.40;96192.00;;;;5067906;28;20720;-83
2023/10/24 06:24:35;;;;;;;6.60;2.10;;;;;11.30;96192.00;;;;5069755;28;20289;-82
2023/10/24 06:27:25;;;;;;;9.03;3.07;;;;;11.20;96193.00;;;;5063803;28;20211;-86
2023/10/24 06:30:16;;;;;;;11.53;3.73;;;;;10.80;96183.00;;;;5064326;28;20207;-85
2023/10/24 06:33:05;;;;;;;7.40;2.47;;;;;10.70;96178.00;;;;5067948;28;20200;-86
2023/10/24 06:35:54;;;;;;;14.03;4.73;;;;;11.70;96184.00;;;;5068409;28;20208;-86
2023/10/24 06:38:43;;;;;;;11.83;3.90;;;;;11.10;96182.00;;;;5069816;28;20803;-89
2023/10/24 06:41:33;;;;;;;2.83;1.07;;;;;11.20;96182.00;;;;5070111;28;20220;-86
2023/10/24 06:44:22;;;;;;;3.40;1.30;;;;;11.70;96183.00;;;;5064863;28;20207;-86
2023/10/24 06:47:13;;;;;;;6.40;2.30;;;;;11.90;96178.00;;;;5064868;28;20215;-84
2023/10/24 06:50:02;;;;;;;7.57;2.57;;;;;11.60;96178.00;;;;5069867;28;20208;-87
2023/10/24 06:52:51;;;;;;;11.53;3.83;;;;;11.50;96188.00;;;;5065607;28;20196;-85
2023/10/24 06:55:40;;;;;;;11.53;3.67;;;;;11.90;96182.00;;;;5067036;28;20200;-87
2023/10/24 06:58:30;;;;;;;4.33;1.53;;;;;12.00;96165.00;;;;5083167;28;20257;-81
2023/10/24 07:01:19;;;;;;;7.63;2.53;;;;;11.90;96159.00;;;;5081895;28;20242;-82
2023/10/24 07:04:10;;;;;;;7.93;2.67;;;;;12.00;96152.00;;;;5077408;28;20218;-85
2023/10/24 07:06:59;;;;;;;6.47;2.13;;;;;12.30;96153.00;;;;5068221;28;20208;-83
2023/10/24 07:09:48;;;;;;;14.30;4.83;;;;;12.30;96138.00;;;;5067500;28;20219;-84
2023/10/24 07:12:37;;;;;;;7.30;2.43;;;;;12.80;96128.00;;;;5071452;28;20200;-84
2023/10/24 07:15:27;;;;;;;6.63;2.27;;;;;12.00;96118.00;;;;5067232;28;20223;-85
2023/10/24 07:18:16;;;;;;;14.20;4.57;;;;;11.90;96123.00;;;;5063132;28;20199;-87
2023/10/24 07:21:06;;;;;;;8.50;2.87;;;;;12.80;96121.00;;;;5069180;28;20831;-84
2023/10/24 07:23:56;;;;;;;7.77;2.57;;;;;12.80;96112.00;;;;5070385;28;20239;-86
2023/10/24 07:26:45;;;;;;;11.63;3.93;;;;;12.30;96110.00;;;;5068723;28;20208;-86
2023/10/24 07:29:34;;;;;;;3.73;1.33;;;;;12.60;96124.00;;;;5070063;28;20692;-85
2023/10/24 07:32:23;;;;;;;6.13;2.17;;;;;11.90;96131.00;;;;5066512;28;20216;-84
2023/10/24 07:35:12;;;;;;;7.87;2.73;;;;;12.70;96130.00;;;;5064839;28;20263;-85
2023/10/24 07:38:04;;;;;;;6.30;2.23;;;;;13.10;96119.00;;;;5070473;28;20602;-86
2023/10/24 07:40:53;;;;;;;14.23;4.90;;;;;13.10;96120.00;;;;5069643;28;20273;-84
2023/10/24 07:43:42;;;;;;;13.00;4.13;;;;;13.00;96108.00;;;;5069591;28;20330;-86
2023/10/24 07:46:31;;;;;;;6.07;2.00;;;;;13.10;96111.00;;;;5069224;28;20874;-84
2023/10/24 07:49:21;;;;;;;5.00;1.70;;;;;13.30;96101.00;;;;5069256;28;20211;-86
2023/10/24 07:52:11;;;;;;;5.23;1.70;;;;;13.30;96086.00;;;;5068492;28;20230;-87
2023/10/24 07:55:01;;;;;;;9.80;3.07;;;;;13.20;96097.00;;;;5064175;28;20207;-86
2023/10/24 07:57:51;;;;;;;15.77;4.87;;;;;13.10;96107.00;;;;5063970;28;20210;-87
2023/10/24 08:00:41;;;;;;;12.03;3.80;;;;;12.80;96106.00;;;;5064116;28;20219;-86
2023/10/24 08:03:30;;;;;;;8.03;2.70;;;;;12.90;96106.00;;;;5066624;28;20625;-85
2023/10/24 08:06:19;;;;;;;12.50;4.07;;;;;13.40;96125.00;;;;5066175;28;20203;-87
2023/10/24 08:09:08;;;;;;;8.20;2.73;;;;;13.50;96127.00;;;;5063316;28;20211;-83
2023/10/24 08:11:59;;;;;;;9.60;3.20;;;;;13.40;96148.00;;;;5065206;28;20224;-87
2023/10/24 08:14:49;;;;;;;16.47;5.17;;;;;13.50;96155.00;;;;5065672;28;20207;-87
2023/10/24 08:17:38;;;;;;;6.20;2.23;;;;;13.40;96140.00;;;;5069971;28;20207;-85
2023/10/24 08:20:27;;;;;;;13.97;4.33;;;;;13.50;96110.00;;;;5067433;28;20231;-83
2023/10/24 08:23:17;;;;;;;12.00;3.90;;;;;13.10;96113.00;;;;5065755;28;20584;-86
2023/10/24 08:26:06;;;;;;;11.80;3.67;;;;;13.10;96130.00;;;;5068933;28;20206;-86
2023/10/24 08:28:56;;;;;;;14.87;4.87;;;;;12.80;96131.00;;;;5068253;28;20196;-86
2023/10/24 08:31:45;;;;;;;14.90;4.50;;;;;13.10;96138.00;;;;5064106;28;20665;-85
2023/10/24 08:34:45;;;;;;;14.97;4.77;;;;;13.00;96149.00;;;;5062415;28;20208;-85
2023/10/24 08:37:35;;;;;;;12.53;4.03;;;;;13.20;96156.00;;;;5065745;28;20204;-86
2023/10/24 08:40:24;;;;;;;8.77;2.93;;;;;13.50;96155.00;;;;5067448;28;20227;-86
2023/10/24 08:43:13;;;;;;;7.87;2.57;;;;;13.70;96140.00;;;;5065191;28;20673;-85
2023/10/24 08:46:04;;;;;;;13.97;4.40;;;;;13.70;96128.00;;;;5069850;28;20834;-84
2023/10/24 08:48:53;;;;;;;15.60;4.93;;;;;13.30;96133.00;;;;5067614;28;20203;-86
2023/10/24 08:51:43;;;;;;;15.90;4.97;;;;;13.10;96128.00;;;;5065861;28;20216;-83
2023/10/24 08:54:32;;;;;;;6.80;2.20;;;;;13.10;96122.00;;;;5069561;28;20207;-85
2023/10/24 08:57:25;;;;;;;8.30;2.67;;;;;13.30;96105.00;;;;5080614;28;20206;-82
2023/10/24 09:00:15;;;;;;;7.57;2.27;;;;;13.60;96107.00;;;;5080886;28;20211;-82
2023/10/24 09:03:05;;;;;;;7.10;2.30;;;;;13.30;96107.00;;;;5072499;28;20220;-84
2023/10/24 09:05:55;;;;;;;20.73;6.57;;;;;12.50;96119.00;;;;5065696;28;20210;-83
2023/10/24 09:08:44;;;;;;;19.67;6.13;;;;;13.00;96117.00;;;;5064634;28;20558;-86
2023/10/24 09:11:53;;;;;;;8.50;2.77;;;;;13.60;96112.00;;;;5065457;28;20224;-86
2023/10/24 09:14:46;;;;;;;14.33;4.60;;;;;13.70;96094.00;;;;5066078;28;20204;-85
2023/10/24 09:17:41;;;;;;;10.63;3.37;;;;;13.40;96097.00;;;;5060291;28;20246;-86
2023/10/24 09:20:33;;;;;;;9.20;2.93;;;;;13.10;96127.00;;;;5067262;28;20216;-85
2023/10/24 09:23:22;;;;;;;10.07;3.23;;;;;13.00;96114.00;;;;5061664;28;20224;-84
2023/10/24 09:26:11;;;;;;;8.23;2.73;;;;;13.40;96079.00;;;;5068372;28;20200;-84
2023/10/24 09:29:01;;;;;;;7.30;2.37;;;;;13.60;96086.00;;;;5068865;28;21280;-84
2023/10/24 09:31:50;;;;;;;15.00;4.77;;;;;13.50;96077.00;;;;5073049;28;20226;-84
2023/10/24 09:34:42;;;;;;;10.03;3.23;;;;;13.20;96095.00;;;;5075080;28;20196;-83
2023/10/24 09:37:33;;;;;;;7.07;2.30;;;;;13.10;96097.00;;;;5074353;28;20195;-83
2023/10/24 09:40:22;;;;;;;6.83;2.23;;;;;13.30;96091.00;;;;5069784;28;20729;-84
2023/10/24 09:43:13;;;;;;;6.57;2.07;;;;;13.40;96115.00;;;;5067055;28;20979;-83
2023/10/24 09:46:03;;;;;;;10.30;3.27;;;;;13.80;96116.00;;;;5069442;28;20208;-83
2023/10/24 09:48:55;;;;;;;12.67;3.97;;;;;13.90;96112.00;;;;5072490;28;20216;-82
2023/10/24 09:51:44;;;;;;;13.77;4.30;;;;;13.80;96129.00;;;;5069827;28;20688;-82
2023/10/24 09:54:35;;;;;;;7.63;2.53;;;;;13.40;96133.00;;;;5071263;28;20688;-82
2023/10/24 09:57:26;;;;;;;9.20;2.97;;;;;13.80;96129.00;;;;5069480;28;20211;-83
2023/10/24 10:00:16;;;;;;;15.20;4.73;;;;;13.80;96128.00;;;;5066156;28;20199;-83
2023/10/24 10:03:05;;;;;;;6.63;2.20;;;;;13.60;96127.00;;;;5073129;28;20200;-81
2023/10/24 10:05:55;;;;;;;16.57;5.27;;;;;13.60;96110.00;;;;5071456;28;20204;-83
2023/10/24 10:08:44;;;;;;;12.30;3.83;;;;;13.70;96126.00;;;;5072106;28;20729;-84
2023/10/24 10:11:35;;;;;;;6.70;2.20;;;;;13.40;96135.00;;;;5071270;28;20243;-82
2023/10/24 10:14:32;;;;;;;7.10;2.30;;;;;13.50;96139.00;;;;5073459;28;20600;-81
2023/10/24 10:17:29;;;;;;;7.67;2.37;;;;;13.90;96152.00;;;;5071396;28;20200;-84
2023/10/24 10:20:48;;;;;;;6.83;2.20;;;;;14.00;96142.00;;;;5073491;28;20231;-82
2023/10/24 10:24:09;;;;;;;5.50;1.90;;;;;14.00;96132.00;;;;5062954;28;20224;-82
2023/10/24 10:27:09;;;;;;;9.57;3.07;;;;;13.80;96139.00;;;;5068991;28;20241;-82
2023/10/24 10:30:05;;;;;;;5.87;2.00;;;;;13.80;96140.00;;;;5069562;28;20204;-81
2023/10/24 10:33:17;;;;;;;9.40;2.97;;;;;14.00;96123.00;;;;5068830;28;20207;-83
2023/10/24 10:36:10;;;;;;;13.50;4.23;;;;;14.10;96110.00;;;;5061770;28;20196;-82
2023/10/24 10:39:00;;;;;;;6.40;2.07;;;;;14.30;96108.00;;;;5068854;28;20211;-81
2023/10/24 10:41:49;;;;;;;16.30;5.00;;;;;14.10;96104.00;;;;5069097;28;20224;-82
2023/10/24 10:44:41;;;;;;;10.10;3.27;;;;;14.30;96100.00;;;;5071227;28;20220;-82
2023/10/24 10:47:31;;;;;;;9.30;2.97;;;;;14.30;96096.00;;;;5064574;28;20207;-82
2023/10/24 10:50:24;;;;;;;8.37;2.73;;;;;14.30;96100.00;;;;5067290;28;20235;-81
2023/10/24 10:53:33;;;;;;;7.90;2.50;;;;;14.00;96104.00;;;;5064398;28;20305;-81
2023/10/24 10:56:24;;;;;;;12.80;3.90;;;;;14.30;96101.00;;;;5064360;28;20267;-81
2023/10/24 10:59:26;;;;;;;7.70;2.47;;;;;14.40;96098.00;;;;5066993;28;20211;-80
2023/10/24 11:02:30;;;;;;;8.70;2.83;;;;;14.70;96083.00;;;;5066802;28;20215;-83
2023/10/24 11:05:49;;;;;;;11.47;3.53;;;;;15.00;96090.00;;;;5071880;28;20267;-86
2023/10/24 11:08:41;;;;;;;9.00;2.93;;;;;14.80;96090.00;;;;5065538;28;20228;-81
2023/10/24 11:11:30;;;;;;;10.30;3.33;;;;;14.70;96078.00;;;;5074692;28;20600;-83
2023/10/24 11:14:20;;;;;;;7.37;2.47;;;;;14.80;96078.00;;;;5074190;28;20204;-80
2023/10/24 11:17:10;;;;;;;6.53;2.20;;;;;15.00;96065.00;;;;5065202;28;20214;-84
2023/10/24 11:20:02;;;;;;;11.33;3.53;;;;;14.90;96056.00;;;;5065584;28;20583;-83
2023/10/24 11:22:57;;;;;;;12.43;4.30;;;;;14.90;96038.00;;;;5068599;28;20265;-84
2023/10/24 11:25:47;;;;;;;13.10;4.20;;;;;14.90;96047.00;;;;5070838;28;20246;-83
2023/10/24 11:28:36;;;;;;;7.93;2.73;;;;;14.80;96030.00;;;;5068435;28;20204;-84
2023/10/24 11:31:26;;;;;;;14.50;4.50;;;;;14.70;96019.00;;;;5063503;28;20228;-81
2023/10/24 11:34:17;;;;;;;7.83;2.53;;;;;15.20;96023.00;;;;5068877;28;20203;-84
2023/10/24 11:37:09;;;;;;;9.27;3.03;;;;;14.90;96026.00;;;;5072338;28;20572;-82
2023/10/24 11:39:59;;;;;;;14.03;4.53;;;;;15.00;96014.00;;;;5070819;28;20204;-82
2023/10/24 11:42:48;;;;;;;15.87;4.93;;;;;15.20;96001.00;;;;5072858;28;20668;-82
2023/10/24 11:45:37;;;;;;;7.63;2.50;;;;;15.10;95986.00;;;;5074256;28;20216;-83
2023/10/24 11:48:26;;;;;;;6.87;2.23;;;;;15.10;95995.00;;;;5073482;28;20207;-83
2023/10/24 11:51:16;;;;;;;13.17;4.23;;;;;14.90;95981.00;;;;5066364;28;20219;-83
2023/10/24 11:54:08;;;;;;;8.13;2.67;;;;;15.10;95971.00;;;;5070909;28;20577;-83
2023/10/24 11:56:58;;;;;;;18.83;5.83;;;;;14.80;95947.00;;;;5071725;28;20203;-82
2023/10/24 11:59:49;;;;;;;19.87;6.20;;;;;15.00;95962.00;;;;5066158;28;20646;-85
2023/10/24 12:02:42;;;;;;;8.63;2.83;;;;;14.80;95963.00;;;;5069679;28;20215;-82
2023/10/24 12:05:32;;;;;;;6.53;2.17;;;;;15.00;95980.00;;;;5067545;28;20642;-82
2023/10/24 12:08:25;;;;;;;18.87;5.77;;;;;15.50;95961.00;;;;5066512;28;20684;-83
2023/10/24 12:11:16;;;;;;;10.07;3.13;;;;;15.60;95952.00;;;;5062873;28;20775;-84
2023/10/24 12:14:05;;;;;;;7.77;2.40;;;;;15.70;95938.00;;;;5070032;28;20196;-83
2023/10/24 12:16:54;;;;;;;16.07;4.90;;;;;15.90;95914.00;;;;5063067;28;20203;-81
2023/10/24 12:19:46;;;;;;;17.57;5.37;;;;;16.00;95912.00;;;;5066673;28;20196;-82
2023/10/24 12:22:35;;;;;;;11.37;3.50;;;;;15.50;95897.00;;;;5060719;28;20215;-82
2023/10/24 12:25:25;;;;;;;6.77;2.30;;;;;15.90;95882.00;;;;5063515;28;20223;-82
2023/10/24 12:28:15;;;;;;;13.27;4.07;;;;;16.00;95898.00;;;;5062735;28;20209;-83
2023/10/24 12:31:05;;;;;;;10.93;3.53;;;;;15.90;95922.00;;;;5061829;28;20239;-83
2023/10/24 12:33:54;;;;;;;16.40;5.07;;;;;15.20;95913.00;;;;5060592;28;20209;-84
2023/10/24 12:36:44;;;;;;;7.80;2.50;;;;;15.40;95902.00;;;;5059811;28;20200;-81
2023/10/24 12:39:34;;;;;;;7.27;2.37;;;;;15.40;95909.00;;;;5057825;28;20220;-83
2023/10/24 12:42:23;;;;;;;8.43;2.57;;;;;15.70;95918.00;;;;5063700;28;20220;-81
2023/10/24 12:45:13;;;;;;;14.03;4.17;;;;;15.70;95917.00;;;;5058294;28;20597;-84
2023/10/24 12:48:07;;;;;;;8.97;2.73;;;;;15.70;95901.00;;;;5057596;28;20669;-82
2023/10/24 12:50:56;;;;;;;22.93;6.93;;;;;15.60;95882.00;;;;5057428;28;20296;-82
2023/10/24 12:53:46;;;;;;;21.67;6.23;;;;;15.80;95881.00;;;;5059333;28;20222;-84
2023/10/24 12:56:37;;;;;;;10.97;3.33;;;;;16.00;95859.00;;;;5060901;28;20201;-82
2023/10/24 12:59:26;;;;;;;10.60;3.23;;;;;15.90;95845.00;;;;5066855;28;20199;-85
2023/10/24 13:02:16;;;;;;;8.20;2.57;;;;;16.00;95841.00;;;;5061781;28;20220;-84
2023/10/24 13:05:06;;;;;;;12.23;3.80;;;;;15.80;95837.00;;;;5067134;28;20235;-85
2023/10/24 13:07:57;;;;;;;23.67;6.87;;;;;15.90;95832.00;;;;5064661;28;20234;-85
2023/10/24 13:10:47;;;;;;;14.40;4.33;;;;;15.90;95820.00;;;;5059629;28;20255;-85
2023/10/24 13:13:36;;;;;;;13.63;4.10;;;;;15.70;95815.00;;;;5064702;28;20204;-84
2023/10/24 13:16:26;;;;;;;13.87;4.13;;;;;15.50;95813.00;;;;5059877;28;20227;-83
2023/10/24 13:19:16;;;;;;;6.67;2.23;;;;;15.70;95809.00;;;;5060643;28;20196;-82
2023/10/24 13:22:05;;;;;;;9.17;2.77;;;;;15.70;95821.00;;;;5065901;28;20228;-83
2023/10/24 13:24:54;;;;;;;14.90;4.43;;;;;15.90;95793.00;;;;5063679;28;20609;-81
2023/10/24 13:27:44;;;;;;;10.63;3.27;;;;;16.10;95775.00;;;;5063558;28;20223;-82
2023/10/24 13:30:33;;;;;;;9.73;3.00;;;;;16.00;95772.00;;;;5072758;28;20249;-82
2023/10/24 13:33:29;;;;;;;8.60;2.70;;;;;15.70;95775.00;;;;5066221;28;20658;-81
2023/10/24 13:36:20;;;;;;;12.17;3.63;;;;;16.00;95752.00;;;;5064163;28;20197;-81
2023/10/24 13:39:11;;;;;;;7.77;2.43;;;;;16.00;95735.00;;;;5067647;28;20200;-84
2023/10/24 13:42:00;;;;;;;16.10;5.03;;;;;15.60;95759.00;;;;5068407;28;20230;-83
2023/10/24 13:44:49;;;;;;;17.53;5.20;;;;;15.70;95753.00;;;;5070202;28;20582;-83
2023/10/24 13:47:39;;;;;;;14.83;4.33;;;;;15.20;95756.00;;;;5071933;28;20692;-82
2023/10/24 13:50:28;;;;;;;9.37;2.90;;;;;15.30;95749.00;;;;5060245;28;20630;-84
2023/10/24 13:53:19;;;;;;;7.03;2.17;;;;;15.50;95754.00;;;;5056994;28;20611;-84
2023/10/24 13:56:08;;;;;;;14.53;4.33;;;;;15.80;95747.00;;;;5068499;28;20192;-83
2023/10/24 13:58:57;;;;;;;13.33;4.10;;;;;15.90;95714.00;;;;5067282;28;20333;-83
2023/10/24 14:01:46;;;;;;;18.97;5.63;;;;;15.40;95734.00;;;;5061738;28;20219;-83
2023/10/24 14:04:35;;;;;;;11.23;3.43;;;;;15.20;95724.00;;;;5067858;28;20199;-82
2023/10/24 14:07:24;;;;;;;8.50;2.57;;;;;15.60;95720.00;;;;5068166;28;20222;-83
2023/10/24 14:10:15;;;;;;;8.47;2.73;;;;;15.80;95729.00;;;;5066001;28;20779;-81